createdAt,value
2018-01-30T00:00:28.967Z,5.60
2018-01-30T00:02:56.754Z,5.50
2018-01-30T00:05:24.514Z,5.60
2018-01-30T00:07:52.244Z,5.60
2018-01-30T00:10:20.160Z,5.70
2018-01-30T00:12:47.879Z,5.60
2018-01-30T00:15:15.645Z,5.60
2018-01-30T00:17:43.415Z,5.70
2018-01-30T00:20:11.412Z,5.70
2018-01-30T00:22:39.176Z,5.70
2018-01-30T00:25:07.137Z,5.80
2018-01-30T00:27:35.175Z,5.80
2018-01-30T00:30:02.976Z,6.00
2018-01-30T00:32:30.762Z,6.20
2018-01-30T00:34:58.742Z,6.30
2018-01-30T00:37:28.529Z,6.10
2018-01-30T00:39:56.412Z,6.10
2018-01-30T00:42:24.980Z,5.90
2018-01-30T00:44:52.939Z,5.90
2018-01-30T00:47:20.862Z,5.80
2018-01-30T00:49:48.621Z,5.70
2018-01-30T00:52:16.415Z,5.60
2018-01-30T00:54:44.218Z,5.50
2018-01-30T00:57:12.282Z,5.40
2018-01-30T00:59:40.894Z,5.40
2018-01-30T01:02:09.533Z,5.30
2018-01-30T01:04:37.503Z,5.20
2018-01-30T01:07:05.268Z,5.30
2018-01-30T01:09:33.378Z,5.30
2018-01-30T01:12:01.902Z,5.20
2018-01-30T01:14:29.801Z,5.20
2018-01-30T01:16:59.905Z,5.20
2018-01-30T01:19:27.972Z,5.20
2018-01-30T01:21:56.441Z,5.20
2018-01-30T01:24:24.312Z,5.10
2018-01-30T01:26:52.687Z,5.10
2018-01-30T01:29:20.659Z,5.00
2018-01-30T01:31:48.414Z,5.00
2018-01-30T01:34:16.151Z,4.90
2018-01-30T01:36:44.278Z,4.90
2018-01-30T01:39:12.143Z,4.90
2018-01-30T01:41:39.906Z,4.90
2018-01-30T01:44:07.852Z,4.90
2018-01-30T01:46:35.750Z,4.90
2018-01-30T01:49:03.697Z,4.90
2018-01-30T01:51:31.522Z,4.90
2018-01-30T01:53:59.511Z,4.90
2018-01-30T01:56:27.577Z,4.90
2018-01-30T01:58:55.491Z,4.90
2018-01-30T02:01:23.349Z,4.90
2018-01-30T02:03:51.585Z,4.90
2018-01-30T02:06:19.493Z,4.90
2018-01-30T02:08:47.565Z,4.90
2018-01-30T02:11:15.329Z,5.00
2018-01-30T02:13:43.301Z,5.00
2018-01-30T02:16:11.391Z,5.00
2018-01-30T02:18:40.089Z,4.90
2018-01-30T02:21:08.007Z,4.90
2018-01-30T02:23:35.754Z,4.90
2018-01-30T02:26:03.528Z,4.90
2018-01-30T02:28:31.439Z,4.90
2018-01-30T02:31:00.202Z,4.90
2018-01-30T02:33:28.050Z,4.90
2018-01-30T02:35:55.842Z,4.90
2018-01-30T02:38:23.942Z,4.90
2018-01-30T02:40:52.467Z,4.90
2018-01-30T02:43:20.253Z,4.90
2018-01-30T02:45:47.986Z,4.90
2018-01-30T02:48:15.778Z,4.90
2018-01-30T02:50:43.626Z,4.90
2018-01-30T02:53:11.716Z,4.90
2018-01-30T02:55:39.566Z,4.90
2018-01-30T02:58:07.510Z,4.90
2018-01-30T03:00:35.579Z,4.90
2018-01-30T03:03:03.403Z,4.90
2018-01-30T03:05:32.568Z,5.00
2018-01-30T03:08:00.627Z,5.00
2018-01-30T03:10:28.733Z,5.00
2018-01-30T03:12:56.601Z,5.00
2018-01-30T03:15:24.789Z,5.00
2018-01-30T03:17:53.435Z,5.10
2018-01-30T03:20:21.304Z,5.10
2018-01-30T03:22:49.473Z,5.10
2018-01-30T03:25:17.356Z,5.10
2018-01-30T03:27:45.612Z,5.10
2018-01-30T03:30:13.590Z,5.10
2018-01-30T03:32:41.870Z,5.10
2018-01-30T03:35:10.045Z,5.20
2018-01-30T03:37:37.930Z,5.20
2018-01-30T03:40:05.780Z,5.20
2018-01-30T03:42:33.655Z,5.20
2018-01-30T03:45:01.438Z,5.20
2018-01-30T03:47:30.062Z,5.20
2018-01-30T03:49:58.281Z,5.20
2018-01-30T03:52:26.148Z,5.20
2018-01-30T03:54:54.194Z,5.20
2018-01-30T03:57:21.942Z,5.20
2018-01-30T03:59:49.928Z,5.20
2018-01-30T04:02:18.164Z,5.20
2018-01-30T04:04:46.684Z,5.10
2018-01-30T04:07:14.771Z,5.10
2018-01-30T04:09:42.743Z,5.10
2018-01-30T04:12:10.818Z,5.10
2018-01-30T04:14:39.103Z,5.10
2018-01-30T04:17:06.960Z,5.10
2018-01-30T04:19:34.777Z,5.10
2018-01-30T04:22:02.874Z,5.10
2018-01-30T04:24:30.621Z,5.10
2018-01-30T04:26:58.509Z,5.10
2018-01-30T04:29:26.285Z,5.20
2018-01-30T04:31:54.746Z,5.20
2018-01-30T04:34:22.475Z,5.20
2018-01-30T04:36:51.210Z,5.20
2018-01-30T04:39:18.975Z,5.20
2018-01-30T04:41:46.932Z,5.20
2018-01-30T04:44:15.004Z,5.30
2018-01-30T04:46:43.606Z,5.30
2018-01-30T04:49:11.780Z,5.20
2018-01-30T04:51:39.628Z,5.30
2018-01-30T04:54:07.493Z,5.30
2018-01-30T04:56:35.281Z,5.30
2018-01-30T04:59:03.337Z,5.30
2018-01-30T05:01:31.602Z,5.30
2018-01-30T05:03:59.568Z,5.30
2018-01-30T05:06:27.439Z,5.20
2018-01-30T05:08:55.220Z,5.20
2018-01-30T05:11:23.300Z,5.30
2018-01-30T05:13:51.261Z,5.20
2018-01-30T05:16:19.128Z,5.20
2018-01-30T05:18:46.977Z,5.20
2018-01-30T05:21:15.004Z,5.20
2018-01-30T05:23:43.676Z,5.20
2018-01-30T05:26:12.534Z,5.20
2018-01-30T05:28:40.711Z,5.20
2018-01-30T05:31:08.663Z,5.20
2018-01-30T05:33:37.350Z,5.20
2018-01-30T05:36:05.364Z,5.20
2018-01-30T05:38:34.124Z,5.20
2018-01-30T05:41:02.009Z,5.20
2018-01-30T05:43:29.958Z,5.20
2018-01-30T05:45:57.922Z,5.20
2018-01-30T05:48:25.774Z,5.20
2018-01-30T05:50:54.578Z,5.20
2018-01-30T05:53:22.535Z,5.20
2018-01-30T05:55:50.625Z,5.20
2018-01-30T05:58:18.497Z,5.20
2018-01-30T06:00:46.565Z,5.20
2018-01-30T06:03:14.538Z,5.20
2018-01-30T06:05:43.553Z,5.20
2018-01-30T06:08:12.318Z,5.10
2018-01-30T06:10:40.223Z,5.10
2018-01-30T06:13:08.228Z,5.10
2018-01-30T06:15:36.127Z,5.20
2018-01-30T06:18:04.116Z,5.10
2018-01-30T06:20:32.521Z,5.10
2018-01-30T06:23:00.643Z,5.10
2018-01-30T06:25:29.305Z,5.10
2018-01-30T06:27:57.579Z,5.10
2018-01-30T06:30:25.547Z,5.10
2018-01-30T06:32:53.546Z,5.00
2018-01-30T06:35:21.996Z,5.00
2018-01-30T06:37:49.967Z,5.10
2018-01-30T06:40:18.036Z,5.10
2018-01-30T06:42:46.067Z,5.00
2018-01-30T06:45:14.798Z,5.10
2018-01-30T06:47:42.674Z,5.10
2018-01-30T06:50:11.762Z,5.00
2018-01-30T06:52:39.946Z,5.00
2018-01-30T06:55:08.230Z,5.00
2018-01-30T06:57:36.098Z,5.00
2018-01-30T07:00:04.262Z,5.00
2018-01-30T07:02:33.317Z,5.00
2018-01-30T07:05:01.224Z,5.00
2018-01-30T07:07:28.965Z,5.00
2018-01-30T07:09:57.042Z,5.00
2018-01-30T07:12:25.026Z,5.00
2018-01-30T07:14:52.995Z,5.00
2018-01-30T07:17:20.946Z,5.10
2018-01-30T07:19:48.915Z,5.20
2018-01-30T07:22:16.694Z,5.20
2018-01-30T07:24:44.674Z,5.20
2018-01-30T07:27:12.681Z,5.30
2018-01-30T07:29:40.542Z,5.30
2018-01-30T07:32:09.199Z,5.30
2018-01-30T07:34:36.993Z,5.30
2018-01-30T07:37:06.129Z,5.30
2018-01-30T07:39:33.881Z,5.20
2018-01-30T07:42:01.878Z,5.30
2018-01-30T07:44:29.636Z,5.30
2018-01-30T07:46:58.342Z,5.40
2018-01-30T07:49:26.281Z,5.40
2018-01-30T07:51:54.165Z,5.40
2018-01-30T07:54:22.128Z,5.50
2018-01-30T07:56:49.930Z,5.50
2018-01-30T07:59:18.410Z,5.60
2018-01-30T08:01:47.147Z,5.70
2018-01-30T08:04:14.911Z,5.70
2018-01-30T08:06:42.694Z,5.70
2018-01-30T08:09:10.542Z,5.80
2018-01-30T08:11:38.437Z,5.70
2018-01-30T08:14:06.303Z,5.80
2018-01-30T08:16:34.240Z,5.80
2018-01-30T08:19:02.026Z,5.90
2018-01-30T08:21:29.896Z,5.90
2018-01-30T08:23:57.782Z,5.80
2018-01-30T08:26:27.318Z,5.90
2018-01-30T08:28:55.323Z,5.90
2018-01-30T08:31:23.231Z,6.00
2018-01-30T08:33:51.872Z,6.00
2018-01-30T08:36:19.655Z,6.00
2018-01-30T08:38:47.534Z,6.10
2018-01-30T08:41:15.394Z,6.10
2018-01-30T08:43:43.232Z,6.30
2018-01-30T08:46:11.052Z,6.50
2018-01-30T08:48:39.570Z,6.90
2018-01-30T08:51:07.344Z,6.90
2018-01-30T08:53:35.121Z,7.00
2018-01-30T08:56:02.996Z,7.10
2018-01-30T08:58:30.855Z,7.20
2018-01-30T09:00:58.632Z,7.20
2018-01-30T09:03:27.203Z,7.20
2018-01-30T09:05:55.053Z,7.00
2018-01-30T09:08:23.213Z,7.20
2018-01-30T09:10:51.010Z,7.40
2018-01-30T09:13:19.094Z,7.50
2018-01-30T09:15:46.948Z,7.60
2018-01-30T09:18:14.930Z,7.70
2018-01-30T09:20:42.890Z,7.80
2018-01-30T09:23:10.764Z,7.80
2018-01-30T09:25:38.810Z,7.90
2018-01-30T09:28:06.787Z,8.30
2018-01-30T09:30:34.642Z,8.40
2018-01-30T09:33:02.615Z,8.70
2018-01-30T09:35:30.396Z,8.90
2018-01-30T09:37:58.452Z,9.00
2018-01-30T09:40:26.538Z,9.00
2018-01-30T09:42:54.426Z,8.70
2018-01-30T09:45:23.172Z,9.60
2018-01-30T09:47:50.938Z,9.60
2018-01-30T09:50:18.831Z,9.90
2018-01-30T09:52:46.669Z,10.10
2018-01-30T09:55:14.542Z,10.20
2018-01-30T09:57:43.047Z,10.20
2018-01-30T10:00:11.090Z,10.30
2018-01-30T10:02:39.078Z,9.90
2018-01-30T10:05:06.954Z,10.00
2018-01-30T10:07:34.793Z,9.40
2018-01-30T10:10:02.576Z,9.50
2018-01-30T10:12:31.239Z,9.30
2018-01-30T10:14:59.267Z,9.30
2018-01-30T10:17:27.926Z,10.70
2018-01-30T10:19:55.881Z,10.70
2018-01-30T10:22:24.135Z,10.80
2018-01-30T10:24:52.159Z,10.60
2018-01-30T10:27:21.131Z,10.50
2018-01-30T10:29:48.988Z,10.50
2018-01-30T10:32:16.835Z,10.50
2018-01-30T10:34:45.221Z,10.60
2018-01-30T10:37:14.334Z,10.40
2018-01-30T10:39:42.231Z,10.40
2018-01-30T10:42:10.348Z,10.10
2018-01-30T10:44:38.438Z,9.80
2018-01-30T10:47:06.428Z,9.40
2018-01-30T10:49:35.176Z,9.30
2018-01-30T10:52:02.974Z,9.30
2018-01-30T10:54:30.748Z,9.00
2018-01-30T10:56:58.572Z,8.70
2018-01-30T10:59:26.352Z,8.50
2018-01-30T11:01:54.128Z,8.40
2018-01-30T11:04:22.602Z,8.50
2018-01-30T11:06:50.472Z,8.60
2018-01-30T11:09:18.206Z,8.60
2018-01-30T11:11:45.990Z,8.50
2018-01-30T11:14:13.944Z,8.60
2018-01-30T11:16:41.917Z,8.70
2018-01-30T11:19:09.694Z,8.70
2018-01-30T11:21:37.474Z,8.50
2018-01-30T11:24:05.318Z,8.40
2018-01-30T11:26:33.836Z,8.50
2018-01-30T11:29:02.385Z,8.80
2018-01-30T11:31:30.169Z,8.80
2018-01-30T11:33:58.934Z,8.50
2018-01-30T11:36:26.741Z,8.50
2018-01-30T11:38:55.399Z,8.90
2018-01-30T11:41:23.258Z,8.90
2018-01-30T11:43:51.123Z,9.20
2018-01-30T11:46:19.090Z,9.30
2018-01-30T11:48:46.904Z,9.40
2018-01-30T11:51:14.707Z,9.60
2018-01-30T11:53:43.510Z,9.60
2018-01-30T11:56:11.290Z,9.60
2018-01-30T11:58:40.174Z,9.90
2018-01-30T12:01:08.029Z,9.80
2018-01-30T12:03:36.213Z,10.10
2018-01-30T12:06:04.078Z,10.20
2018-01-30T12:08:32.048Z,10.10
2018-01-30T12:11:00.524Z,10.00
2018-01-30T12:13:29.369Z,10.00
2018-01-30T12:15:57.385Z,10.00
2018-01-30T12:18:25.387Z,10.00
2018-01-30T12:20:54.020Z,10.30
2018-01-30T12:23:21.747Z,10.20
2018-01-30T12:25:50.287Z,10.10
2018-01-30T12:28:18.151Z,10.10
2018-01-30T12:30:45.934Z,10.10
2018-01-30T12:33:13.782Z,10.30
2018-01-30T12:35:41.757Z,10.50
2018-01-30T12:38:09.596Z,10.10
2018-01-30T12:40:37.380Z,10.20
2018-01-30T12:43:05.228Z,10.60
2018-01-30T12:45:33.096Z,10.80
2018-01-30T12:48:00.884Z,10.70
2018-01-30T12:50:28.825Z,10.60
2018-01-30T12:52:56.679Z,10.50
2018-01-30T12:55:24.482Z,10.30
2018-01-30T12:57:52.280Z,10.30
2018-01-30T13:00:21.008Z,9.50
2018-01-30T13:02:48.894Z,9.50
2018-01-30T13:05:16.748Z,9.30
2018-01-30T13:07:44.634Z,9.30
2018-01-30T13:10:12.783Z,9.40
2018-01-30T13:12:40.759Z,9.60
2018-01-30T13:15:09.774Z,9.70
2018-01-30T13:17:39.061Z,9.80
2018-01-30T13:20:06.934Z,9.80
2018-01-30T13:22:34.878Z,9.90
2018-01-30T13:25:02.675Z,9.80
2018-01-30T13:27:31.332Z,9.80
2018-01-30T13:29:59.168Z,9.80
2018-01-30T13:32:27.079Z,9.90
2018-01-30T13:34:55.192Z,9.90
2018-01-30T13:37:27.503Z,10.20
2018-01-30T13:40:00.517Z,10.20
2018-01-30T13:42:28.719Z,10.50
2018-01-30T13:44:57.765Z,11.00
2018-01-30T13:47:26.807Z,11.00
2018-01-30T13:49:56.197Z,10.90
2018-01-30T13:52:24.248Z,10.90
2018-01-30T13:54:52.217Z,11.10
2018-01-30T13:57:22.172Z,11.10
2018-01-30T13:59:50.083Z,11.30
2018-01-30T14:02:18.299Z,11.30
2018-01-30T14:04:46.837Z,11.40
2018-01-30T14:07:14.782Z,11.40
2018-01-30T14:09:43.395Z,10.80
2018-01-30T14:12:11.197Z,10.80
2018-01-30T14:14:39.851Z,10.70
2018-01-30T14:17:08.868Z,10.70
2018-01-30T14:19:40.163Z,10.70
2018-01-30T14:22:10.073Z,10.70
2018-01-30T14:24:39.530Z,11.10
2018-01-30T14:27:10.072Z,11.50
2018-01-30T14:29:41.001Z,11.50
2018-01-30T14:32:11.033Z,11.60
2018-01-30T14:34:41.476Z,11.60
2018-01-30T14:37:10.973Z,11.60
2018-01-30T14:39:40.445Z,11.50
2018-01-30T14:42:10.969Z,11.30
2018-01-30T14:44:40.165Z,11.30
2018-01-30T14:47:10.391Z,11.10
2018-01-30T14:49:40.855Z,9.90
2018-01-30T14:52:10.864Z,9.90
2018-01-30T14:54:40.288Z,9.50
2018-01-30T14:57:09.841Z,9.20
2018-01-30T14:59:39.324Z,8.90
2018-01-30T15:02:09.364Z,8.90
2018-01-30T15:04:39.282Z,9.10
2018-01-30T15:07:08.572Z,9.10
2018-01-30T15:09:38.353Z,9.10
2018-01-30T15:12:08.968Z,9.00
2018-01-30T15:14:38.995Z,8.80
2018-01-30T15:17:08.148Z,8.60
2018-01-30T15:19:38.310Z,8.30
2018-01-30T15:22:09.054Z,8.30
2018-01-30T15:24:39.472Z,8.20
2018-01-30T15:27:09.265Z,8.10
2018-01-30T15:29:38.598Z,8.00
2018-01-30T15:32:07.726Z,7.90
2018-01-30T15:34:38.196Z,7.70
2018-01-30T15:37:07.636Z,7.70
2018-01-30T15:39:38.736Z,7.50
2018-01-30T15:42:08.890Z,7.50
2018-01-30T15:44:38.386Z,7.50
2018-01-30T15:47:07.867Z,7.40
2018-01-30T15:49:38.242Z,7.40
2018-01-30T15:52:07.596Z,7.30
2018-01-30T15:54:36.768Z,7.20
2018-01-30T15:57:04.933Z,7.10
2018-01-30T15:59:32.686Z,7.10
2018-01-30T16:02:00.637Z,7.10
2018-01-30T16:04:28.650Z,7.00
2018-01-30T16:06:57.414Z,7.00
2018-01-30T16:09:25.280Z,7.00
2018-01-30T16:11:53.540Z,7.00
2018-01-30T16:14:21.436Z,7.00
2018-01-30T16:16:49.575Z,6.90
2018-01-30T16:19:17.564Z,6.90
2018-01-30T16:21:45.452Z,6.80
2018-01-30T16:24:14.350Z,6.80
2018-01-30T16:26:43.501Z,6.90
2018-01-30T16:29:11.569Z,6.90
2018-01-30T16:31:41.007Z,6.90
2018-01-30T16:34:09.214Z,7.00
2018-01-30T16:36:37.275Z,7.10
2018-01-30T16:39:06.243Z,7.10
2018-01-30T16:41:35.304Z,7.00
2018-01-30T16:44:03.584Z,7.00
2018-01-30T16:46:32.049Z,7.00
2018-01-30T16:49:00.073Z,7.00
2018-01-30T16:51:28.959Z,7.00
2018-01-30T16:53:58.114Z,6.90
2018-01-30T16:56:26.270Z,6.90
2018-01-30T16:58:55.115Z,6.90
2018-01-30T17:01:23.971Z,6.90
2018-01-30T17:03:52.250Z,6.80
2018-01-30T17:06:20.516Z,6.90
2018-01-30T17:08:48.601Z,7.00
2018-01-30T17:11:16.665Z,6.90
2018-01-30T17:13:44.636Z,6.90
2018-01-30T17:16:12.709Z,6.90
2018-01-30T17:18:40.684Z,6.90
2018-01-30T17:21:09.483Z,6.80
2018-01-30T17:23:37.431Z,6.90
2018-01-30T17:26:06.045Z,6.90
2018-01-30T17:28:34.021Z,6.90
2018-01-30T17:31:02.157Z,6.90
2018-01-30T17:33:30.129Z,7.00
2018-01-30T17:35:58.197Z,7.00
2018-01-30T17:38:26.319Z,7.00
2018-01-30T17:40:56.078Z,7.00
2018-01-30T17:43:24.400Z,7.00
2018-01-30T17:45:53.362Z,7.00
2018-01-30T17:48:22.036Z,7.10
2018-01-30T17:50:50.519Z,7.00
2018-01-30T17:53:18.590Z,7.00
2018-01-30T17:55:46.666Z,7.00
2018-01-30T17:58:14.729Z,7.00
2018-01-30T18:00:42.852Z,7.00
2018-01-30T18:03:11.698Z,7.00
2018-01-30T18:05:39.691Z,7.00
2018-01-30T18:08:08.488Z,7.00
2018-01-30T18:10:37.237Z,7.10
2018-01-30T18:13:05.205Z,7.00
2018-01-30T18:15:33.317Z,7.10
2018-01-30T18:18:01.179Z,7.10
2018-01-30T18:20:29.933Z,7.20
2018-01-30T18:22:57.907Z,7.20
2018-01-30T18:25:26.073Z,7.20
2018-01-30T18:27:53.974Z,7.40
2018-01-30T18:30:22.834Z,7.30
2018-01-30T18:32:50.860Z,7.30
2018-01-30T18:35:19.101Z,7.30
2018-01-30T18:37:48.108Z,7.20
2018-01-30T18:40:16.811Z,7.10
2018-01-30T18:42:46.770Z,7.10
2018-01-30T18:45:14.981Z,7.10
2018-01-30T18:47:44.111Z,7.00
2018-01-30T18:50:12.323Z,7.00
2018-01-30T18:52:40.899Z,6.90
2018-01-30T18:55:08.874Z,6.90
2018-01-30T18:57:36.837Z,7.00
2018-01-30T19:00:05.235Z,6.90
2018-01-30T19:02:33.850Z,6.90
2018-01-30T19:05:02.791Z,6.80
2018-01-30T19:07:30.831Z,6.80
2018-01-30T19:09:58.832Z,6.80
2018-01-30T19:12:26.818Z,6.70
2018-01-30T19:14:55.178Z,6.70
2018-01-30T19:17:23.397Z,6.70
2018-01-30T19:19:52.242Z,6.60
2018-01-30T19:22:20.521Z,6.60
2018-01-30T19:24:48.770Z,6.50
2018-01-30T19:27:16.981Z,6.50
2018-01-30T19:29:44.890Z,6.50
2018-01-30T19:32:14.065Z,6.50
2018-01-30T19:34:42.410Z,6.50
2018-01-30T19:37:10.691Z,6.50
2018-01-30T19:39:39.718Z,6.40
2018-01-30T19:42:10.026Z,6.50
2018-01-30T19:44:38.925Z,6.40
2018-01-30T19:47:08.095Z,6.40
2018-01-30T19:49:36.220Z,6.40
2018-01-30T19:52:05.891Z,6.40
2018-01-30T19:54:33.757Z,6.40
2018-01-30T19:57:02.179Z,6.40
2018-01-30T19:59:31.112Z,6.40
2018-01-30T20:01:59.186Z,6.40
2018-01-30T20:04:27.666Z,6.40
2018-01-30T20:06:55.861Z,6.40
2018-01-30T20:09:24.625Z,6.40
2018-01-30T20:11:52.595Z,6.50
2018-01-30T20:14:20.662Z,6.50
2018-01-30T20:16:48.960Z,6.50
2018-01-30T20:19:18.146Z,6.50
2018-01-30T20:21:46.006Z,6.50
2018-01-30T20:24:13.988Z,6.50
2018-01-30T20:26:45.058Z,6.50
2018-01-30T20:29:14.116Z,6.50
2018-01-30T20:31:42.181Z,6.50
2018-01-30T20:34:10.262Z,6.50
2018-01-30T20:36:38.338Z,6.50
2018-01-30T20:39:06.299Z,6.50
2018-01-30T20:41:34.262Z,6.50
2018-01-30T20:44:02.936Z,6.50
2018-01-30T20:46:30.712Z,6.50
2018-01-30T20:48:58.490Z,6.40
2018-01-30T20:51:26.421Z,6.40
2018-01-30T20:53:54.369Z,6.30
2018-01-30T20:56:23.022Z,6.30
2018-01-30T20:58:51.174Z,6.30
2018-01-30T21:01:21.316Z,6.30
2018-01-30T21:03:49.975Z,6.30
2018-01-30T21:06:17.982Z,6.40
2018-01-30T21:08:46.938Z,6.40
2018-01-30T21:11:14.812Z,6.40
2018-01-30T21:13:47.813Z,6.40
2018-01-30T21:16:15.814Z,6.40
2018-01-30T21:18:44.468Z,6.40
2018-01-30T21:21:12.545Z,6.40
2018-01-30T21:23:40.703Z,6.40
2018-01-30T21:26:10.404Z,6.40
2018-01-30T21:28:38.473Z,6.40
2018-01-30T21:31:06.438Z,6.40
2018-01-30T21:33:34.740Z,6.40
2018-01-30T21:36:02.612Z,6.40
2018-01-30T21:38:30.526Z,6.50
2018-01-30T21:40:58.743Z,6.50
2018-01-30T21:43:26.717Z,6.50
2018-01-30T21:45:54.559Z,6.50
2018-01-30T21:48:22.313Z,6.50
2018-01-30T21:50:50.363Z,6.40
2018-01-30T21:53:18.234Z,6.40
2018-01-30T21:55:46.044Z,6.40
2018-01-30T21:58:14.317Z,6.40
2018-01-30T22:00:43.165Z,6.40
2018-01-30T22:03:11.896Z,6.40
2018-01-30T22:05:39.802Z,6.40
2018-01-30T22:08:08.450Z,6.30
2018-01-30T22:10:36.315Z,6.30
2018-01-30T22:13:04.098Z,6.30
2018-01-30T22:15:31.843Z,6.30
2018-01-30T22:17:59.733Z,6.30
2018-01-30T22:20:27.661Z,6.20
2018-01-30T22:22:55.456Z,6.20
2018-01-30T22:25:24.019Z,6.20
2018-01-30T22:27:51.897Z,6.20
2018-01-30T22:30:19.740Z,6.10
2018-01-30T22:32:47.518Z,6.20
2018-01-30T22:35:15.287Z,6.20
2018-01-30T22:37:43.045Z,6.20
2018-01-30T22:40:10.843Z,6.10
2018-01-30T22:42:39.483Z,6.10
2018-01-30T22:45:08.193Z,6.10
